Wednesday, October 18, 2017, 6:07 PM EDT
Back to Local

KTEB, Teterboro Airport

Location: South Hackensack, NJ, United States Lat: 40.867
Local Time: 6:07 PM EDT (22:07 GMT) Lon: -74.05
Time Zone: US/Eastern Elev: 9 ft

Show me the last for .
Show Decoded

2017-10-18 17:51 METAR KTEB 182151Z 17007KT 10SM CLR 22/08 A3023 RMK AO2 RAB22E32 SLP237 P0000
                 T02220083 =
2017-10-18 16:51 METAR KTEB 182051Z 23006KT 10SM CLR 23/08 A3023 RMK AO2 SLP236 T02330078 56011 =
2017-10-18 15:51 METAR KTEB 181951Z 18008KT 10SM CLR 24/08 A3024 RMK AO2 SLP238 T02440078 =
2017-10-18 14:51 METAR KTEB 181851Z VRB04KT 10SM CLR 24/07 A3025 RMK AO2 SLP243 T02390072 =
2017-10-18 13:51 METAR KTEB 181751Z 16003KT 10SM CLR 22/07 A3026 RMK AO2 SLP247 T02170067 10228
                 20078 58017 =
2017-10-18 12:51 METAR KTEB 181651Z COR 000/00 10SM CLR 22/07 A3029 RMK AO2 SLP258 T02170067 =
2017-10-18 11:51 METAR KTEB 181551Z 36004KT 10SM CLR 19/06 A3031 RMK AO2 SLP263 T01940061 =
2017-10-18 10:51 METAR KTEB 181451Z VRB03KT 10SM CLR 17/05 A3031 RMK AO2 SLP264 T01670050 50000 =
2017-10-18 09:51 METAR KTEB 181351Z 21003KT 10SM CLR 13/05 A3032 RMK AO2 SLP267 T01330050 =
2017-10-18 08:51 METAR KTEB 181251Z 21005KT 10SM CLR 11/05 A3032 RMK AO2 SLP267 T01060050 =
2017-10-18 07:51 METAR KTEB 181151Z 21003KT 10SM CLR 08/04 A3031 RMK AO2 SLP263 T00780044 10089
                 20061 51015 =
2017-10-18 06:51 METAR KTEB 181051Z 21003KT 10SM CLR 07/04 A3030 RMK AO2 SLP260 T00670039 =
2017-10-18 05:51 METAR KTEB 180951Z 00000KT 10SM CLR 06/03 A3029 RMK AO2 SLP256 T00610033 =
2017-10-18 04:51 METAR KTEB 180851Z 00000KT 10SM CLR 07/03 A3027 RMK AO2 SLP249 T00720033 55006 =
2017-10-18 03:51 METAR KTEB 180751Z 00000KT 10SM CLR 08/03 A3026 RMK AO2 SLP246 T00830033 =
2017-10-18 02:51 METAR KTEB 180651Z 21003KT 10SM CLR 08/03 A3028 RMK AO2 SLP252 T00830028 =
2017-10-18 01:51 METAR KTEB 180551Z 21003KT 10SM CLR 08/03 A3029 RMK AO2 SLP255 T00830033 10122
                 20078 55001 =
2017-10-18 00:51 METAR KTEB 180451Z 19003KT 10SM CLR 09/04 A3028 RMK AO2 SLP255 T00890039
                 401670039 =
2017-10-17 23:51 METAR KTEB 180351Z 20004KT 10SM CLR 09/03 A3028 RMK AO2 SLP254 T00890033 =
2017-10-17 22:51 METAR KTEB 180251Z 21008KT 10SM CLR 11/04 A3029 RMK AO2 SLP256 T01060039 53009 =
2017-10-17 21:51 METAR KTEB 180151Z 22006KT 10SM CLR 11/06 A3028 RMK AO2 SLP252 T01110056 =
2017-10-17 20:51 METAR KTEB 180051Z 19007KT 10SM CLR 12/05 A3027 RMK AO2 SLP250 T01170050 =
2017-10-17 19:51 METAR KTEB 172351Z 18004KT 10SM CLR 12/02 A3026 RMK AO2 SLP247 T01220017 10167
                 20117 53009 =
2017-10-17 18:51 METAR KTEB 172251Z 19004KT 10SM CLR 12/02 A3025 RMK AO2 SLP243 T01220022 =

Support USWX by starting your Amazon purchase here.